sensor_id;sensor_type;location;lat;lon;timestamp;P1;durP1;ratioP1;P2;durP2;ratioP2
51925;SDS011;37952;51.938;15.480;2022-07-23T00:02:34;3.90;;;2.60;;
51925;SDS011;37952;51.938;15.480;2022-07-23T00:05:37;5.00;;;2.80;;
51925;SDS011;37952;51.938;15.480;2022-07-23T00:08:40;3.00;;;2.90;;
51925;SDS011;37952;51.938;15.480;2022-07-23T00:11:43;3.30;;;3.10;;
51925;SDS011;37952;51.938;15.480;2022-07-23T00:14:46;3.60;;;3.30;;
51925;SDS011;37952;51.938;15.480;2022-07-23T00:17:50;3.50;;;3.00;;
51925;SDS011;37952;51.938;15.480;2022-07-23T00:20:53;7.40;;;3.20;;
51925;SDS011;37952;51.938;15.480;2022-07-23T00:23:56;4.20;;;3.30;;
51925;SDS011;37952;51.938;15.480;2022-07-23T00:26:59;3.00;;;2.80;;
51925;SDS011;37952;51.938;15.480;2022-07-23T00:30:02;3.90;;;3.60;;
51925;SDS011;37952;51.938;15.480;2022-07-23T00:33:06;3.80;;;3.50;;
51925;SDS011;37952;51.938;15.480;2022-07-23T00:36:10;5.60;;;3.40;;
51925;SDS011;37952;51.938;15.480;2022-07-23T00:39:13;3.30;;;3.10;;
51925;SDS011;37952;51.938;15.480;2022-07-23T00:42:16;3.30;;;3.20;;
51925;SDS011;37952;51.938;15.480;2022-07-23T00:45:19;3.30;;;3.10;;
51925;SDS011;37952;51.938;15.480;2022-07-23T00:48:22;3.10;;;3.00;;
51925;SDS011;37952;51.938;15.480;2022-07-23T00:51:26;3.10;;;2.90;;
51925;SDS011;37952;51.938;15.480;2022-07-23T00:54:29;3.00;;;2.70;;
51925;SDS011;37952;51.938;15.480;2022-07-23T00:57:32;2.90;;;2.70;;
51925;SDS011;37952;51.938;15.480;2022-07-23T01:00:38;3.50;;;3.30;;
51925;SDS011;37952;51.938;15.480;2022-07-23T01:03:41;3.20;;;3.00;;
51925;SDS011;37952;51.938;15.480;2022-07-23T01:06:45;3.30;;;3.10;;
51925;SDS011;37952;51.938;15.480;2022-07-23T01:09:48;3.40;;;3.20;;
51925;SDS011;37952;51.938;15.480;2022-07-23T01:12:53;2.80;;;2.70;;
51925;SDS011;37952;51.938;15.480;2022-07-23T01:15:56;3.80;;;2.80;;
51925;SDS011;37952;51.938;15.480;2022-07-23T01:18:59;3.90;;;3.30;;
51925;SDS011;37952;51.938;15.480;2022-07-23T01:22:03;3.10;;;3.00;;
51925;SDS011;37952;51.938;15.480;2022-07-23T01:25:11;3.30;;;3.00;;
51925;SDS011;37952;51.938;15.480;2022-07-23T01:31:17;3.00;;;2.70;;
51925;SDS011;37952;51.938;15.480;2022-07-23T01:34:22;4.00;;;3.00;;
51925;SDS011;37952;51.938;15.480;2022-07-23T01:37:25;4.50;;;3.00;;
51925;SDS011;37952;51.938;15.480;2022-07-23T01:40:28;3.70;;;3.00;;
51925;SDS011;37952;51.938;15.480;2022-07-23T01:43:31;3.90;;;3.70;;
51925;SDS011;37952;51.938;15.480;2022-07-23T01:46:34;6.70;;;4.30;;
51925;SDS011;37952;51.938;15.480;2022-07-23T01:49:38;3.60;;;3.40;;
51925;SDS011;37952;51.938;15.480;2022-07-23T01:52:41;3.80;;;3.00;;
51925;SDS011;37952;51.938;15.480;2022-07-23T01:55:44;3.80;;;3.50;;
51925;SDS011;37952;51.938;15.480;2022-07-23T01:58:47;3.60;;;3.30;;
51925;SDS011;37952;51.938;15.480;2022-07-23T02:01:51;3.90;;;3.60;;
51925;SDS011;37952;51.938;15.480;2022-07-23T02:04:55;4.10;;;3.80;;
51925;SDS011;37952;51.938;15.480;2022-07-23T02:07:58;3.90;;;3.70;;
51925;SDS011;37952;51.938;15.480;2022-07-23T02:11:02;4.30;;;3.80;;
51925;SDS011;37952;51.938;15.480;2022-07-23T02:14:05;3.90;;;3.60;;
51925;SDS011;37952;51.938;15.480;2022-07-23T02:17:08;4.10;;;3.90;;
51925;SDS011;37952;51.938;15.480;2022-07-23T02:20:12;3.50;;;3.30;;
51925;SDS011;37952;51.938;15.480;2022-07-23T02:23:15;3.20;;;3.00;;
51925;SDS011;37952;51.938;15.480;2022-07-23T02:26:18;3.80;;;3.50;;
51925;SDS011;37952;51.938;15.480;2022-07-23T02:29:22;3.60;;;3.40;;
51925;SDS011;37952;51.938;15.480;2022-07-23T02:32:25;3.50;;;3.30;;
51925;SDS011;37952;51.938;15.480;2022-07-23T02:35:28;3.40;;;3.20;;
51925;SDS011;37952;51.938;15.480;2022-07-23T02:38:31;3.20;;;3.00;;
51925;SDS011;37952;51.938;15.480;2022-07-23T02:41:34;4.40;;;4.20;;
51925;SDS011;37952;51.938;15.480;2022-07-23T02:44:37;5.70;;;5.30;;
51925;SDS011;37952;51.938;15.480;2022-07-23T02:47:43;4.70;;;4.50;;
51925;SDS011;37952;51.938;15.480;2022-07-23T02:50:46;4.70;;;4.40;;
51925;SDS011;37952;51.938;15.480;2022-07-23T02:53:49;5.10;;;3.90;;
51925;SDS011;37952;51.938;15.480;2022-07-23T02:56:52;6.20;;;3.80;;
51925;SDS011;37952;51.938;15.480;2022-07-23T02:59:55;3.80;;;3.50;;
51925;SDS011;37952;51.938;15.480;2022-07-23T03:02:58;3.70;;;3.40;;
51925;SDS011;37952;51.938;15.480;2022-07-23T03:06:01;3.60;;;3.40;;
51925;SDS011;37952;51.938;15.480;2022-07-23T03:09:06;4.00;;;3.80;;
51925;SDS011;37952;51.938;15.480;2022-07-23T03:12:09;3.90;;;3.70;;
51925;SDS011;37952;51.938;15.480;2022-07-23T03:15:16;3.60;;;3.40;;
51925;SDS011;37952;51.938;15.480;2022-07-23T03:18:18;4.10;;;3.80;;
51925;SDS011;37952;51.938;15.480;2022-07-23T03:21:21;5.10;;;4.90;;
51925;SDS011;37952;51.938;15.480;2022-07-23T03:24:24;4.30;;;4.00;;
51925;SDS011;37952;51.938;15.480;2022-07-23T03:27:48;4.60;;;4.00;;
51925;SDS011;37952;51.938;15.480;2022-07-23T03:30:50;4.30;;;4.00;;
51925;SDS011;37952;51.938;15.480;2022-07-23T03:33:54;4.20;;;3.80;;
51925;SDS011;37952;51.938;15.480;2022-07-23T03:37:01;4.00;;;3.80;;
51925;SDS011;37952;51.938;15.480;2022-07-23T03:40:07;3.80;;;3.60;;
51925;SDS011;37952;51.938;15.480;2022-07-23T03:43:11;5.10;;;3.80;;
51925;SDS011;37952;51.938;15.480;2022-07-23T03:46:15;8.70;;;4.00;;
51925;SDS011;37952;51.938;15.480;2022-07-23T03:49:19;5.50;;;3.40;;
51925;SDS011;37952;51.938;15.480;2022-07-23T03:52:22;3.80;;;3.60;;
51925;SDS011;37952;51.938;15.480;2022-07-23T03:55:25;3.80;;;3.60;;
51925;SDS011;37952;51.938;15.480;2022-07-23T03:58:28;3.20;;;3.00;;
51925;SDS011;37952;51.938;15.480;2022-07-23T04:01:31;9.10;;;3.70;;
51925;SDS011;37952;51.938;15.480;2022-07-23T04:04:35;4.90;;;3.80;;
51925;SDS011;37952;51.938;15.480;2022-07-23T04:07:38;3.80;;;3.60;;
51925;SDS011;37952;51.938;15.480;2022-07-23T04:10:41;3.80;;;3.20;;
51925;SDS011;37952;51.938;15.480;2022-07-23T04:13:44;3.40;;;3.20;;
51925;SDS011;37952;51.938;15.480;2022-07-23T04:16:47;4.80;;;3.80;;
51925;SDS011;37952;51.938;15.480;2022-07-23T04:19:50;4.00;;;3.60;;
51925;SDS011;37952;51.938;15.480;2022-07-23T04:22:53;4.90;;;4.20;;
51925;SDS011;37952;51.938;15.480;2022-07-23T04:25:56;4.20;;;4.00;;
51925;SDS011;37952;51.938;15.480;2022-07-23T04:28:59;3.50;;;3.30;;
51925;SDS011;37952;51.938;15.480;2022-07-23T04:32:03;3.40;;;3.20;;
51925;SDS011;37952;51.938;15.480;2022-07-23T04:35:07;3.20;;;3.00;;
51925;SDS011;37952;51.938;15.480;2022-07-23T04:38:10;3.00;;;2.80;;
51925;SDS011;37952;51.938;15.480;2022-07-23T04:41:13;2.90;;;2.80;;
51925;SDS011;37952;51.938;15.480;2022-07-23T04:44:16;3.30;;;2.90;;
51925;SDS011;37952;51.938;15.480;2022-07-23T04:47:19;3.00;;;2.80;;
51925;SDS011;37952;51.938;15.480;2022-07-23T04:50:24;5.90;;;2.80;;
51925;SDS011;37952;51.938;15.480;2022-07-23T04:53:27;3.00;;;2.80;;
51925;SDS011;37952;51.938;15.480;2022-07-23T04:56:30;2.70;;;2.40;;
51925;SDS011;37952;51.938;15.480;2022-07-23T04:59:33;2.60;;;2.40;;
51925;SDS011;37952;51.938;15.480;2022-07-23T05:02:36;5.30;;;2.40;;
51925;SDS011;37952;51.938;15.480;2022-07-23T05:05:39;2.40;;;2.30;;
51925;SDS011;37952;51.938;15.480;2022-07-23T05:08:43;2.20;;;2.10;;
51925;SDS011;37952;51.938;15.480;2022-07-23T05:11:47;2.20;;;2.10;;
51925;SDS011;37952;51.938;15.480;2022-07-23T05:14:56;2.30;;;2.20;;
51925;SDS011;37952;51.938;15.480;2022-07-23T05:18:01;2.30;;;2.20;;
51925;SDS011;37952;51.938;15.480;2022-07-23T05:21:04;2.50;;;2.40;;
51925;SDS011;37952;51.938;15.480;2022-07-23T05:24:08;2.40;;;2.30;;
51925;SDS011;37952;51.938;15.480;2022-07-23T05:27:12;2.30;;;2.20;;
51925;SDS011;37952;51.938;15.480;2022-07-23T05:30:15;4.40;;;2.10;;
51925;SDS011;37952;51.938;15.480;2022-07-23T05:33:19;3.10;;;1.90;;
51925;SDS011;37952;51.938;15.480;2022-07-23T05:36:22;2.90;;;2.40;;
51925;SDS011;37952;51.938;15.480;2022-07-23T05:39:26;2.30;;;2.20;;
51925;SDS011;37952;51.938;15.480;2022-07-23T05:42:36;5.60;;;2.10;;
51925;SDS011;37952;51.938;15.480;2022-07-23T05:45:55;2.40;;;2.30;;
51925;SDS011;37952;51.938;15.480;2022-07-23T05:49:02;2.70;;;2.60;;
51925;SDS011;37952;51.938;15.480;2022-07-23T05:52:06;2.50;;;2.40;;
51925;SDS011;37952;51.938;15.480;2022-07-23T05:55:10;5.50;;;2.60;;
51925;SDS011;37952;51.938;15.480;2022-07-23T05:58:15;2.50;;;2.40;;
51925;SDS011;37952;51.938;15.480;2022-07-23T06:01:18;2.60;;;2.40;;
51925;SDS011;37952;51.938;15.480;2022-07-23T06:04:21;2.50;;;2.40;;
51925;SDS011;37952;51.938;15.480;2022-07-23T06:07:25;2.40;;;2.30;;
51925;SDS011;37952;51.938;15.480;2022-07-23T06:10:28;3.00;;;2.90;;
51925;SDS011;37952;51.938;15.480;2022-07-23T06:13:34;2.90;;;2.80;;
51925;SDS011;37952;51.938;15.480;2022-07-23T06:16:37;3.80;;;2.80;;
51925;SDS011;37952;51.938;15.480;2022-07-23T06:19:42;3.90;;;3.70;;
51925;SDS011;37952;51.938;15.480;2022-07-23T06:22:49;4.60;;;4.20;;
51925;SDS011;37952;51.938;15.480;2022-07-23T06:25:53;4.30;;;4.10;;
51925;SDS011;37952;51.938;15.480;2022-07-23T06:28:56;6.90;;;5.70;;
51925;SDS011;37952;51.938;15.480;2022-07-23T06:32:00;7.20;;;5.90;;
51925;SDS011;37952;51.938;15.480;2022-07-23T06:35:03;5.00;;;4.70;;
51925;SDS011;37952;51.938;15.480;2022-07-23T06:38:07;4.10;;;3.80;;
51925;SDS011;37952;51.938;15.480;2022-07-23T06:41:10;4.30;;;4.00;;
51925;SDS011;37952;51.938;15.480;2022-07-23T06:44:13;4.20;;;3.90;;
51925;SDS011;37952;51.938;15.480;2022-07-23T06:47:16;5.40;;;3.60;;
51925;SDS011;37952;51.938;15.480;2022-07-23T06:50:20;4.30;;;4.10;;
51925;SDS011;37952;51.938;15.480;2022-07-23T06:53:23;4.10;;;3.90;;
51925;SDS011;37952;51.938;15.480;2022-07-23T06:56:26;3.10;;;2.90;;
51925;SDS011;37952;51.938;15.480;2022-07-23T06:59:29;3.50;;;3.30;;
51925;SDS011;37952;51.938;15.480;2022-07-23T07:02:32;4.10;;;3.80;;
51925;SDS011;37952;51.938;15.480;2022-07-23T07:05:35;3.80;;;3.50;;
51925;SDS011;37952;51.938;15.480;2022-07-23T07:08:38;4.40;;;4.20;;
51925;SDS011;37952;51.938;15.480;2022-07-23T07:11:41;4.30;;;4.10;;
51925;SDS011;37952;51.938;15.480;2022-07-23T07:14:44;10.80;;;4.00;;
51925;SDS011;37952;51.938;15.480;2022-07-23T07:17:47;4.30;;;4.00;;
51925;SDS011;37952;51.938;15.480;2022-07-23T07:20:50;4.30;;;4.00;;
51925;SDS011;37952;51.938;15.480;2022-07-23T07:23:58;4.50;;;4.30;;
51925;SDS011;37952;51.938;15.480;2022-07-23T07:27:01;4.40;;;4.10;;
51925;SDS011;37952;51.938;15.480;2022-07-23T07:30:04;4.70;;;4.40;;
51925;SDS011;37952;51.938;15.480;2022-07-23T07:33:07;5.30;;;5.00;;
51925;SDS011;37952;51.938;15.480;2022-07-23T07:36:10;5.80;;;5.20;;
51925;SDS011;37952;51.938;15.480;2022-07-23T07:39:20;4.90;;;4.60;;
51925;SDS011;37952;51.938;15.480;2022-07-23T07:42:23;5.10;;;4.80;;
51925;SDS011;37952;51.938;15.480;2022-07-23T07:45:26;4.80;;;4.50;;
51925;SDS011;37952;51.938;15.480;2022-07-23T07:48:29;4.80;;;4.40;;
51925;SDS011;37952;51.938;15.480;2022-07-23T07:51:32;5.20;;;4.90;;
51925;SDS011;37952;51.938;15.480;2022-07-23T07:54:36;7.60;;;6.60;;
51925;SDS011;37952;51.938;15.480;2022-07-23T07:57:40;13.40;;;8.10;;
51925;SDS011;37952;51.938;15.480;2022-07-23T08:00:50;8.40;;;6.70;;
51925;SDS011;37952;51.938;15.480;2022-07-23T08:03:53;7.50;;;5.90;;
51925;SDS011;37952;51.938;15.480;2022-07-23T08:06:58;5.60;;;5.10;;
51925;SDS011;37952;51.938;15.480;2022-07-23T08:10:01;5.50;;;5.20;;
51925;SDS011;37952;51.938;15.480;2022-07-23T08:13:04;6.40;;;5.80;;
51925;SDS011;37952;51.938;15.480;2022-07-23T08:16:07;6.00;;;5.70;;
51925;SDS011;37952;51.938;15.480;2022-07-23T08:19:11;5.70;;;5.30;;
51925;SDS011;37952;51.938;15.480;2022-07-23T08:22:14;6.00;;;5.40;;
51925;SDS011;37952;51.938;15.480;2022-07-23T08:25:22;5.10;;;4.80;;
51925;SDS011;37952;51.938;15.480;2022-07-23T08:28:27;8.70;;;8.10;;
51925;SDS011;37952;51.938;15.480;2022-07-23T08:31:30;7.20;;;6.60;;
51925;SDS011;37952;51.938;15.480;2022-07-23T08:34:35;7.30;;;7.00;;
51925;SDS011;37952;51.938;15.480;2022-07-23T08:37:45;6.10;;;5.80;;
51925;SDS011;37952;51.938;15.480;2022-07-23T08:40:53;5.00;;;4.70;;
51925;SDS011;37952;51.938;15.480;2022-07-23T08:43:57;5.10;;;4.80;;
51925;SDS011;37952;51.938;15.480;2022-07-23T08:47:04;4.70;;;4.50;;
51925;SDS011;37952;51.938;15.480;2022-07-23T08:50:07;4.70;;;4.50;;
51925;SDS011;37952;51.938;15.480;2022-07-23T08:53:11;4.30;;;4.10;;
51925;SDS011;37952;51.938;15.480;2022-07-23T08:56:15;4.90;;;4.60;;
51925;SDS011;37952;51.938;15.480;2022-07-23T08:59:18;4.50;;;4.20;;
51925;SDS011;37952;51.938;15.480;2022-07-23T09:02:21;6.60;;;4.70;;
51925;SDS011;37952;51.938;15.480;2022-07-23T09:05:24;4.00;;;3.80;;
51925;SDS011;37952;51.938;15.480;2022-07-23T09:08:34;6.80;;;3.60;;
51925;SDS011;37952;51.938;15.480;2022-07-23T09:11:37;3.80;;;3.50;;
51925;SDS011;37952;51.938;15.480;2022-07-23T09:14:41;2.90;;;2.80;;
51925;SDS011;37952;51.938;15.480;2022-07-23T09:17:52;3.00;;;2.90;;
51925;SDS011;37952;51.938;15.480;2022-07-23T09:24:35;3.80;;;3.60;;
51925;SDS011;37952;51.938;15.480;2022-07-23T09:28:12;3.50;;;3.20;;
51925;SDS011;37952;51.938;15.480;2022-07-23T09:31:10;3.90;;;3.60;;
51925;SDS011;37952;51.938;15.480;2022-07-23T09:34:15;3.00;;;2.90;;
51925;SDS011;37952;51.938;15.480;2022-07-23T09:37:20;3.00;;;2.70;;
51925;SDS011;37952;51.938;15.480;2022-07-23T09:40:23;2.70;;;2.60;;
51925;SDS011;37952;51.938;15.480;2022-07-23T09:43:27;2.90;;;2.70;;
51925;SDS011;37952;51.938;15.480;2022-07-23T09:46:37;3.40;;;3.10;;
51925;SDS011;37952;51.938;15.480;2022-07-23T09:53:27;2.70;;;2.60;;
51925;SDS011;37952;51.938;15.480;2022-07-23T09:56:29;2.80;;;2.70;;
51925;SDS011;37952;51.938;15.480;2022-07-23T09:59:35;3.30;;;3.10;;
51925;SDS011;37952;51.938;15.480;2022-07-23T10:02:40;3.80;;;3.20;;
51925;SDS011;37952;51.938;15.480;2022-07-23T10:05:43;3.70;;;3.40;;
51925;SDS011;37952;51.938;15.480;2022-07-23T10:08:47;3.60;;;3.40;;
51925;SDS011;37952;51.938;15.480;2022-07-23T10:11:52;2.80;;;2.70;;
51925;SDS011;37952;51.938;15.480;2022-07-23T10:15:00;2.90;;;2.80;;
51925;SDS011;37952;51.938;15.480;2022-07-23T10:18:03;3.40;;;3.20;;
51925;SDS011;37952;51.938;15.480;2022-07-23T10:21:07;3.20;;;2.90;;
51925;SDS011;37952;51.938;15.480;2022-07-23T10:30:51;3.70;;;3.00;;
51925;SDS011;37952;51.938;15.480;2022-07-23T10:34:24;3.00;;;2.90;;
51925;SDS011;37952;51.938;15.480;2022-07-23T10:37:42;2.80;;;2.60;;
51925;SDS011;37952;51.938;15.480;2022-07-23T10:40:52;2.70;;;2.60;;
51925;SDS011;37952;51.938;15.480;2022-07-23T10:47:26;2.30;;;2.20;;
51925;SDS011;37952;51.938;15.480;2022-07-23T10:54:21;2.40;;;2.30;;
51925;SDS011;37952;51.938;15.480;2022-07-23T10:57:25;2.60;;;2.50;;
51925;SDS011;37952;51.938;15.480;2022-07-23T11:00:30;2.50;;;2.40;;
51925;SDS011;37952;51.938;15.480;2022-07-23T11:03:35;2.70;;;2.50;;
51925;SDS011;37952;51.938;15.480;2022-07-23T11:09:50;2.80;;;2.70;;
51925;SDS011;37952;51.938;15.480;2022-07-23T11:12:54;6.50;;;4.10;;
51925;SDS011;37952;51.938;15.480;2022-07-23T11:23:13;2.90;;;2.80;;
51925;SDS011;37952;51.938;15.480;2022-07-23T11:26:40;2.80;;;2.70;;
51925;SDS011;37952;51.938;15.480;2022-07-23T11:30:01;2.80;;;2.70;;
51925;SDS011;37952;51.938;15.480;2022-07-23T11:36:12;2.70;;;2.60;;
51925;SDS011;37952;51.938;15.480;2022-07-23T11:39:15;3.10;;;2.90;;
51925;SDS011;37952;51.938;15.480;2022-07-23T11:42:19;2.50;;;2.40;;
51925;SDS011;37952;51.938;15.480;2022-07-23T11:45:23;2.90;;;2.80;;
51925;SDS011;37952;51.938;15.480;2022-07-23T11:48:29;3.40;;;2.90;;
51925;SDS011;37952;51.938;15.480;2022-07-23T11:51:36;2.70;;;2.50;;
51925;SDS011;37952;51.938;15.480;2022-07-23T11:55:27;2.80;;;2.60;;
51925;SDS011;37952;51.938;15.480;2022-07-23T11:58:13;3.00;;;2.80;;
51925;SDS011;37952;51.938;15.480;2022-07-23T12:01:16;3.60;;;2.90;;
51925;SDS011;37952;51.938;15.480;2022-07-23T12:04:22;2.80;;;2.70;;
51925;SDS011;37952;51.938;15.480;2022-07-23T12:13:41;3.10;;;2.80;;
51925;SDS011;37952;51.938;15.480;2022-07-23T12:16:44;2.40;;;2.30;;
51925;SDS011;37952;51.938;15.480;2022-07-23T12:19:47;2.60;;;2.50;;
51925;SDS011;37952;51.938;15.480;2022-07-23T12:22:52;2.70;;;2.60;;
51925;SDS011;37952;51.938;15.480;2022-07-23T12:26:00;2.90;;;2.80;;
51925;SDS011;37952;51.938;15.480;2022-07-23T12:29:05;3.50;;;3.20;;
51925;SDS011;37952;51.938;15.480;2022-07-23T12:32:25;3.00;;;2.90;;
51925;SDS011;37952;51.938;15.480;2022-07-23T12:35:31;3.70;;;3.40;;
51925;SDS011;37952;51.938;15.480;2022-07-23T12:38:45;3.10;;;3.00;;
51925;SDS011;37952;51.938;15.480;2022-07-23T12:41:52;3.30;;;3.10;;
51925;SDS011;37952;51.938;15.480;2022-07-23T12:48:08;3.10;;;3.00;;
51925;SDS011;37952;51.938;15.480;2022-07-23T12:51:19;3.20;;;3.00;;
51925;SDS011;37952;51.938;15.480;2022-07-23T12:54:27;6.50;;;3.40;;
51925;SDS011;37952;51.938;15.480;2022-07-23T12:57:46;4.00;;;3.30;;
51925;SDS011;37952;51.938;15.480;2022-07-23T13:03:58;3.00;;;2.90;;
51925;SDS011;37952;51.938;15.480;2022-07-23T13:07:06;3.20;;;3.10;;
51925;SDS011;37952;51.938;15.480;2022-07-23T13:10:10;3.40;;;3.20;;
51925;SDS011;37952;51.938;15.480;2022-07-23T13:13:15;3.30;;;3.00;;
51925;SDS011;37952;51.938;15.480;2022-07-23T13:16:18;3.60;;;3.30;;
51925;SDS011;37952;51.938;15.480;2022-07-23T13:19:23;3.40;;;3.20;;
51925;SDS011;37952;51.938;15.480;2022-07-23T13:22:28;3.40;;;3.20;;
51925;SDS011;37952;51.938;15.480;2022-07-23T13:25:31;3.40;;;3.20;;
51925;SDS011;37952;51.938;15.480;2022-07-23T13:28:34;3.40;;;3.20;;
51925;SDS011;37952;51.938;15.480;2022-07-23T13:31:38;3.60;;;3.30;;
51925;SDS011;37952;51.938;15.480;2022-07-23T13:34:42;3.30;;;3.10;;
51925;SDS011;37952;51.938;15.480;2022-07-23T13:37:46;3.10;;;3.00;;
51925;SDS011;37952;51.938;15.480;2022-07-23T13:40:53;3.10;;;2.90;;
51925;SDS011;37952;51.938;15.480;2022-07-23T13:43:56;3.20;;;3.10;;
51925;SDS011;37952;51.938;15.480;2022-07-23T13:47:00;2.50;;;2.40;;
51925;SDS011;37952;51.938;15.480;2022-07-23T13:50:03;2.50;;;2.40;;
51925;SDS011;37952;51.938;15.480;2022-07-23T13:53:10;2.50;;;2.40;;
51925;SDS011;37952;51.938;15.480;2022-07-23T13:56:14;2.50;;;2.40;;
51925;SDS011;37952;51.938;15.480;2022-07-23T13:59:17;2.40;;;2.30;;
51925;SDS011;37952;51.938;15.480;2022-07-23T14:02:20;2.60;;;2.40;;
51925;SDS011;37952;51.938;15.480;2022-07-23T14:05:27;2.30;;;2.20;;
51925;SDS011;37952;51.938;15.480;2022-07-23T14:08:29;2.30;;;2.20;;
51925;SDS011;37952;51.938;15.480;2022-07-23T14:11:33;2.20;;;2.10;;
51925;SDS011;37952;51.938;15.480;2022-07-23T14:14:36;5.00;;;2.30;;
51925;SDS011;37952;51.938;15.480;2022-07-23T14:17:41;2.30;;;2.20;;
51925;SDS011;37952;51.938;15.480;2022-07-23T14:20:45;2.00;;;1.90;;
51925;SDS011;37952;51.938;15.480;2022-07-23T14:23:48;2.60;;;2.40;;
51925;SDS011;37952;51.938;15.480;2022-07-23T14:26:51;2.60;;;2.40;;
51925;SDS011;37952;51.938;15.480;2022-07-23T14:29:54;2.40;;;2.30;;
51925;SDS011;37952;51.938;15.480;2022-07-23T14:32:58;2.30;;;2.20;;
51925;SDS011;37952;51.938;15.480;2022-07-23T14:36:02;2.60;;;2.50;;
51925;SDS011;37952;51.938;15.480;2022-07-23T14:39:07;2.80;;;2.60;;
51925;SDS011;37952;51.938;15.480;2022-07-23T14:42:12;3.20;;;3.00;;
51925;SDS011;37952;51.938;15.480;2022-07-23T14:45:16;2.40;;;2.30;;
51925;SDS011;37952;51.938;15.480;2022-07-23T14:48:20;3.20;;;3.10;;
51925;SDS011;37952;51.938;15.480;2022-07-23T14:51:24;2.70;;;2.60;;
51925;SDS011;37952;51.938;15.480;2022-07-23T14:54:28;2.70;;;2.50;;
51925;SDS011;37952;51.938;15.480;2022-07-23T14:57:31;2.30;;;2.20;;
51925;SDS011;37952;51.938;15.480;2022-07-23T15:00:34;2.00;;;1.90;;
51925;SDS011;37952;51.938;15.480;2022-07-23T15:03:37;2.30;;;2.20;;
51925;SDS011;37952;51.938;15.480;2022-07-23T15:06:44;1.90;;;1.80;;
51925;SDS011;37952;51.938;15.480;2022-07-23T15:09:48;2.80;;;2.00;;
51925;SDS011;37952;51.938;15.480;2022-07-23T15:12:51;2.30;;;2.10;;
51925;SDS011;37952;51.938;15.480;2022-07-23T15:15:56;2.40;;;2.20;;
51925;SDS011;37952;51.938;15.480;2022-07-23T15:18:59;2.20;;;2.00;;
51925;SDS011;37952;51.938;15.480;2022-07-23T15:22:04;1.90;;;1.80;;
51925;SDS011;37952;51.938;15.480;2022-07-23T15:25:09;2.00;;;1.90;;
51925;SDS011;37952;51.938;15.480;2022-07-23T15:28:14;2.80;;;2.00;;
51925;SDS011;37952;51.938;15.480;2022-07-23T15:31:23;2.80;;;2.60;;
51925;SDS011;37952;51.938;15.480;2022-07-23T15:34:30;2.70;;;2.60;;
51925;SDS011;37952;51.938;15.480;2022-07-23T15:37:34;2.60;;;2.40;;
51925;SDS011;37952;51.938;15.480;2022-07-23T15:40:42;2.60;;;2.50;;
51925;SDS011;37952;51.938;15.480;2022-07-23T15:43:46;2.00;;;1.90;;
51925;SDS011;37952;51.938;15.480;2022-07-23T15:46:51;2.60;;;2.40;;
51925;SDS011;37952;51.938;15.480;2022-07-23T15:49:55;2.10;;;1.90;;
51925;SDS011;37952;51.938;15.480;2022-07-23T15:52:58;2.20;;;2.10;;
51925;SDS011;37952;51.938;15.480;2022-07-23T15:56:02;2.80;;;2.00;;
51925;SDS011;37952;51.938;15.480;2022-07-23T15:59:07;3.10;;;2.70;;
51925;SDS011;37952;51.938;15.480;2022-07-23T16:02:11;2.60;;;2.40;;
51925;SDS011;37952;51.938;15.480;2022-07-23T16:05:14;2.00;;;1.90;;
51925;SDS011;37952;51.938;15.480;2022-07-23T16:08:33;2.00;;;1.90;;
51925;SDS011;37952;51.938;15.480;2022-07-23T16:11:37;2.00;;;1.90;;
51925;SDS011;37952;51.938;15.480;2022-07-23T16:14:40;1.70;;;1.60;;
51925;SDS011;37952;51.938;15.480;2022-07-23T16:17:43;1.80;;;1.70;;
51925;SDS011;37952;51.938;15.480;2022-07-23T16:20:46;2.10;;;2.00;;
51925;SDS011;37952;51.938;15.480;2022-07-23T16:23:49;3.60;;;2.00;;
51925;SDS011;37952;51.938;15.480;2022-07-23T16:26:53;2.40;;;2.00;;
51925;SDS011;37952;51.938;15.480;2022-07-23T16:30:08;2.00;;;1.90;;
51925;SDS011;37952;51.938;15.480;2022-07-23T16:33:19;2.20;;;1.70;;
51925;SDS011;37952;51.938;15.480;2022-07-23T16:36:23;4.60;;;1.70;;
51925;SDS011;37952;51.938;15.480;2022-07-23T16:39:26;1.70;;;1.60;;
51925;SDS011;37952;51.938;15.480;2022-07-23T16:42:29;1.80;;;1.70;;
51925;SDS011;37952;51.938;15.480;2022-07-23T16:45:32;2.80;;;2.10;;
51925;SDS011;37952;51.938;15.480;2022-07-23T16:48:35;2.60;;;1.70;;
51925;SDS011;37952;51.938;15.480;2022-07-23T16:51:39;1.90;;;1.80;;
51925;SDS011;37952;51.938;15.480;2022-07-23T16:54:42;1.80;;;1.70;;
51925;SDS011;37952;51.938;15.480;2022-07-23T16:57:45;1.90;;;1.80;;
51925;SDS011;37952;51.938;15.480;2022-07-23T17:00:48;2.00;;;1.90;;
51925;SDS011;37952;51.938;15.480;2022-07-23T17:03:51;1.70;;;1.60;;
51925;SDS011;37952;51.938;15.480;2022-07-23T17:06:54;1.50;;;1.40;;
51925;SDS011;37952;51.938;15.480;2022-07-23T17:09:57;2.10;;;1.80;;
51925;SDS011;37952;51.938;15.480;2022-07-23T17:13:00;1.50;;;1.40;;
51925;SDS011;37952;51.938;15.480;2022-07-23T17:16:03;2.10;;;2.00;;
51925;SDS011;37952;51.938;15.480;2022-07-23T17:19:06;1.60;;;1.20;;
51925;SDS011;37952;51.938;15.480;2022-07-23T17:22:09;4.00;;;1.40;;
51925;SDS011;37952;51.938;15.480;2022-07-23T17:25:12;2.10;;;2.00;;
51925;SDS011;37952;51.938;15.480;2022-07-23T17:28:21;2.10;;;1.80;;
51925;SDS011;37952;51.938;15.480;2022-07-23T17:31:25;2.20;;;2.00;;
51925;SDS011;37952;51.938;15.480;2022-07-23T17:34:28;2.20;;;2.00;;
51925;SDS011;37952;51.938;15.480;2022-07-23T17:37:31;5.20;;;1.90;;
51925;SDS011;37952;51.938;15.480;2022-07-23T17:40:34;2.20;;;2.00;;
51925;SDS011;37952;51.938;15.480;2022-07-23T17:43:38;2.70;;;1.60;;
51925;SDS011;37952;51.938;15.480;2022-07-23T17:46:41;2.40;;;2.30;;
51925;SDS011;37952;51.938;15.480;2022-07-23T17:49:47;2.70;;;2.40;;
51925;SDS011;37952;51.938;15.480;2022-07-23T17:52:52;2.40;;;2.20;;
51925;SDS011;37952;51.938;15.480;2022-07-23T17:55:57;2.30;;;1.80;;
51925;SDS011;37952;51.938;15.480;2022-07-23T17:59:02;1.90;;;1.80;;
51925;SDS011;37952;51.938;15.480;2022-07-23T18:02:06;2.20;;;2.00;;
51925;SDS011;37952;51.938;15.480;2022-07-23T18:05:10;2.40;;;2.20;;
51925;SDS011;37952;51.938;15.480;2022-07-23T18:08:13;1.70;;;1.60;;
51925;SDS011;37952;51.938;15.480;2022-07-23T18:11:17;2.80;;;2.00;;
51925;SDS011;37952;51.938;15.480;2022-07-23T18:14:22;2.20;;;2.10;;
51925;SDS011;37952;51.938;15.480;2022-07-23T18:17:27;2.30;;;2.10;;
51925;SDS011;37952;51.938;15.480;2022-07-23T18:20:30;2.30;;;2.20;;
51925;SDS011;37952;51.938;15.480;2022-07-23T18:23:39;2.00;;;1.90;;
51925;SDS011;37952;51.938;15.480;2022-07-23T18:26:42;2.10;;;2.00;;
51925;SDS011;37952;51.938;15.480;2022-07-23T18:29:45;2.00;;;1.90;;
51925;SDS011;37952;51.938;15.480;2022-07-23T18:32:48;2.00;;;1.90;;
51925;SDS011;37952;51.938;15.480;2022-07-23T18:35:51;3.50;;;2.30;;
51925;SDS011;37952;51.938;15.480;2022-07-23T18:38:56;2.20;;;2.10;;
51925;SDS011;37952;51.938;15.480;2022-07-23T18:42:05;2.20;;;2.00;;
51925;SDS011;37952;51.938;15.480;2022-07-23T18:45:11;2.60;;;2.20;;
51925;SDS011;37952;51.938;15.480;2022-07-23T18:48:15;1.90;;;1.80;;
51925;SDS011;37952;51.938;15.480;2022-07-23T18:51:18;2.50;;;2.30;;
51925;SDS011;37952;51.938;15.480;2022-07-23T18:54:21;2.80;;;2.60;;
51925;SDS011;37952;51.938;15.480;2022-07-23T18:57:25;2.00;;;1.90;;
51925;SDS011;37952;51.938;15.480;2022-07-23T19:00:29;2.40;;;2.20;;
51925;SDS011;37952;51.938;15.480;2022-07-23T19:03:33;2.30;;;2.10;;
51925;SDS011;37952;51.938;15.480;2022-07-23T19:06:37;2.10;;;2.00;;